Time;durP1;ratioP1;P1;durP2;ratioP2;P2;SDS_P1;SDS_P2;PMS_P1;PMS_P2;Temp;Humidity;BMP_temperature;BMP_pressure;BME280_temperature;BME280_humidity;BME280_pressure;Samples;Min_cycle;Max_cycle;Signal;HPM_P1;HPM_P2
2023/08/14 00:00:31;;;;;;;11.75;4.15;;;16.80;99.90;;;;;;4999754;28;37598;-75
2023/08/14 00:02:57;;;;;;;12.18;4.13;;;16.90;99.90;;;;;;5003899;28;39114;-75
2023/08/14 00:05:23;;;;;;;13.30;4.13;;;16.90;99.90;;;;;;5001381;28;37422;-76
2023/08/14 00:07:49;;;;;;;15.20;4.63;;;16.90;99.90;;;;;;5009861;28;38984;-76
2023/08/14 00:10:16;;;;;;;13.52;4.93;;;16.90;99.90;;;;;;4998129;28;36719;-76
2023/08/14 00:12:42;;;;;;;13.55;4.55;;;16.90;99.90;;;;;;4998011;28;39419;-76
2023/08/14 00:15:08;;;;;;;14.57;4.93;;;16.90;99.90;;;;;;5006384;28;38934;-76
2023/08/14 00:17:35;;;;;;;17.58;5.00;;;16.90;99.90;;;;;;5004961;28;38417;-75
2023/08/14 00:20:01;;;;;;;8.60;4.07;;;16.90;99.90;;;;;;5004085;28;37248;-76
2023/08/14 00:22:27;;;;;;;13.00;4.72;;;16.90;99.90;;;;;;5003990;28;39226;-76
2023/08/14 00:24:53;;;;;;;16.02;5.53;;;16.90;99.90;;;;;;5004031;28;38293;-76
2023/08/14 00:27:21;;;;;;;10.25;4.75;;;17.00;99.90;;;;;;5000358;28;36948;-76
2023/08/14 00:29:47;;;;;;;10.60;5.28;;;17.00;99.90;;;;;;5005525;28;37145;-76
2023/08/14 00:32:13;;;;;;;17.30;5.93;;;17.00;99.90;;;;;;4996575;28;39674;-75
2023/08/14 00:34:39;;;;;;;6.90;4.38;;;17.00;99.90;;;;;;4998509;28;37194;-76
2023/08/14 00:37:05;;;;;;;8.85;4.43;;;16.90;99.90;;;;;;4995897;28;37879;-76
2023/08/14 00:39:31;;;;;;;6.80;3.55;;;16.80;99.90;;;;;;4997220;28;37962;-76
2023/08/14 00:41:57;;;;;;;5.90;3.65;;;16.80;99.90;;;;;;4994419;28;38784;-76
2023/08/14 00:44:23;;;;;;;6.53;3.47;;;16.80;99.90;;;;;;4996602;28;38199;-77
2023/08/14 00:46:49;;;;;;;6.22;3.47;;;16.70;99.90;;;;;;4998455;28;38956;-76
2023/08/14 00:49:16;;;;;;;7.45;4.72;;;16.60;99.90;;;;;;4994575;28;37719;-76
2023/08/14 00:51:42;;;;;;;8.20;3.72;;;16.50;99.90;;;;;;4992335;28;39099;-75
2023/08/14 00:54:09;;;;;;;8.18;3.35;;;16.40;99.90;;;;;;4996030;28;38321;-76
2023/08/14 00:56:35;;;;;;;6.60;3.60;;;16.40;99.90;;;;;;4995366;28;37697;-75
2023/08/14 00:59:02;;;;;;;7.38;3.75;;;16.30;99.90;;;;;;4996329;28;35149;-76
2023/08/14 01:04:01;;;;;;;7.65;3.85;;;16.20;99.90;;;;;;4948915;28;20039;-77
2023/08/14 01:06:27;;;;;;;7.57;3.88;;;16.20;99.90;;;;;;4957352;28;36916;-78
2023/08/14 01:08:54;;;;;;;8.10;3.60;;;16.20;99.90;;;;;;4977216;28;36172;-78
2023/08/14 01:11:34;;;;;;;6.22;3.60;;;16.20;99.90;;;;;;4949892;28;38133;-76
2023/08/14 01:14:09;;;;;;;8.38;4.28;;;16.20;99.90;;;;;;4944990;28;38872;-75
2023/08/14 01:16:43;;;;;;;5.47;3.60;;;16.10;99.90;;;;;;4948576;28;47311;-76
2023/08/14 01:19:21;;;;;;;7.65;4.10;;;16.10;99.90;;;;;;4942404;28;37471;-74
2023/08/14 01:22:02;;;;;;;6.38;3.15;;;16.00;99.90;;;;;;4928148;28;38683;-75
2023/08/14 01:24:46;;;;;;;10.75;4.32;;;16.00;99.90;;;;;;4946331;28;48781;-76
2023/08/14 01:27:13;;;;;;;5.00;3.60;;;16.00;99.90;;;;;;4948288;28;38520;-75
2023/08/14 01:29:39;;;;;;;7.03;3.55;;;15.90;99.90;;;;;;4952342;28;38473;-76
2023/08/14 01:32:06;;;;;;;6.20;3.72;;;15.90;99.90;;;;;;4930949;28;37642;-76
2023/08/14 01:34:32;;;;;;;8.23;3.28;;;15.90;99.90;;;;;;4933860;28;38627;-76
2023/08/14 01:37:15;;;;;;;8.65;3.80;;;15.90;99.90;;;;;;4940967;28;38767;-73
2023/08/14 01:39:50;;;;;;;5.93;2.95;;;15.90;99.90;;;;;;4948290;28;49032;-73
2023/08/14 01:42:32;;;;;;;8.55;3.30;;;15.80;99.90;;;;;;4966177;28;38589;-76
2023/08/14 01:45:05;;;;;;;4.60;3.15;;;15.80;99.90;;;;;;4954057;28;37419;-76
2023/08/14 01:47:33;;;;;;;8.05;4.07;;;15.80;99.90;;;;;;4952531;28;46953;-76
2023/08/14 01:50:01;;;;;;;7.95;3.55;;;15.80;99.90;;;;;;4975735;28;38193;-76
2023/08/14 01:52:28;;;;;;;6.03;3.30;;;15.70;99.90;;;;;;4971451;28;38883;-75
2023/08/14 01:55:00;;;;;;;5.82;3.42;;;15.70;99.90;;;;;;4971712;28;38602;-76
2023/08/14 01:57:27;;;;;;;7.13;3.67;;;15.70;99.90;;;;;;4982951;28;37349;-76
2023/08/14 01:59:53;;;;;;;6.15;3.47;;;15.70;99.90;;;;;;4964841;28;36012;-75
2023/08/14 02:02:19;;;;;;;7.00;3.70;;;15.70;99.90;;;;;;4958752;28;37586;-76
2023/08/14 02:04:45;;;;;;;5.82;4.18;;;15.70;99.90;;;;;;4941914;28;37538;-76
2023/08/14 02:07:12;;;;;;;7.35;3.72;;;15.70;99.90;;;;;;4945347;28;36867;-76
2023/08/14 02:09:38;;;;;;;7.65;3.88;;;15.70;99.90;;;;;;4948715;28;36593;-75
2023/08/14 02:12:04;;;;;;;8.82;3.75;;;15.70;99.90;;;;;;4963921;28;38885;-76
2023/08/14 02:14:31;;;;;;;8.10;3.60;;;15.70;99.90;;;;;;4967391;28;37097;-76
2023/08/14 02:16:57;;;;;;;5.97;3.38;;;15.70;99.90;;;;;;4955462;28;37805;-76
2023/08/14 02:19:23;;;;;;;6.85;3.88;;;15.60;99.90;;;;;;4960672;28;37996;-76
2023/08/14 02:21:49;;;;;;;6.00;3.67;;;15.60;99.90;;;;;;4953669;28;37508;-76
2023/08/14 02:24:15;;;;;;;4.25;3.15;;;15.60;99.90;;;;;;4946620;28;38337;-76
2023/08/14 02:26:41;;;;;;;5.70;3.38;;;15.60;99.90;;;;;;4958984;28;38085;-76
2023/08/14 02:29:08;;;;;;;5.93;3.55;;;15.60;99.90;;;;;;4950136;28;35906;-76
2023/08/14 02:31:34;;;;;;;5.55;3.42;;;15.50;99.90;;;;;;4973961;28;38709;-76
2023/08/14 02:34:01;;;;;;;3.28;2.97;;;15.50;99.90;;;;;;4944854;28;38698;-76
2023/08/14 02:36:28;;;;;;;4.25;3.15;;;15.50;99.90;;;;;;4945553;28;47267;-76
2023/08/14 02:38:54;;;;;;;4.60;3.28;;;15.50;99.90;;;;;;4963373;28;37315;-76
2023/08/14 02:41:21;;;;;;;7.05;3.38;;;15.40;99.90;;;;;;4950874;28;38856;-75
2023/08/14 02:43:47;;;;;;;4.80;3.08;;;15.40;99.90;;;;;;4947580;28;37199;-76
2023/08/14 02:46:13;;;;;;;7.03;3.40;;;15.40;99.90;;;;;;4947468;28;36966;-76
2023/08/14 02:48:40;;;;;;;6.65;2.80;;;15.40;99.90;;;;;;4961965;28;39014;-75
2023/08/14 02:51:06;;;;;;;4.28;2.90;;;15.40;99.90;;;;;;4927664;28;38563;-76
2023/08/14 02:53:32;;;;;;;4.35;2.58;;;15.40;99.90;;;;;;4953626;28;37635;-76
2023/08/14 02:55:58;;;;;;;5.40;3.05;;;15.40;99.90;;;;;;4949414;28;38281;-75
2023/08/14 02:58:24;;;;;;;4.35;3.20;;;15.30;99.90;;;;;;4962590;28;37292;-76
2023/08/14 03:00:50;;;;;;;7.18;3.83;;;15.40;99.90;;;;;;4946128;28;39102;-76
2023/08/14 03:03:16;;;;;;;9.48;4.40;;;15.40;99.90;;;;;;4944760;28;37072;-75
2023/08/14 03:05:44;;;;;;;4.85;3.42;;;15.40;99.90;;;;;;4962753;28;36518;-75
2023/08/14 03:08:10;;;;;;;6.22;3.78;;;15.40;99.90;;;;;;4960577;28;36323;-76
2023/08/14 03:10:36;;;;;;;6.43;3.25;;;15.50;99.90;;;;;;4961779;28;39715;-75
2023/08/14 03:13:03;;;;;;;8.82;4.18;;;15.50;99.90;;;;;;4942443;28;37716;-76
2023/08/14 03:15:29;;;;;;;5.65;3.92;;;15.50;99.90;;;;;;4963506;28;37369;-75
2023/08/14 03:17:55;;;;;;;5.00;4.03;;;15.50;99.90;;;;;;4942105;28;35933;-76
2023/08/14 03:20:21;;;;;;;6.90;4.40;;;15.50;99.90;;;;;;4944296;28;38342;-76
2023/08/14 03:22:47;;;;;;;6.85;4.35;;;15.50;99.90;;;;;;4945678;28;37352;-75
2023/08/14 03:25:13;;;;;;;6.63;4.35;;;15.50;99.90;;;;;;4968752;28;39015;-75
2023/08/14 03:27:39;;;;;;;6.28;4.00;;;15.60;99.90;;;;;;4942374;28;36218;-76
2023/08/14 03:30:06;;;;;;;5.20;3.55;;;15.60;99.90;;;;;;4962251;28;40585;-75
2023/08/14 03:32:32;;;;;;;6.53;4.10;;;15.60;99.90;;;;;;4959863;28;37482;-75
2023/08/14 03:34:58;;;;;;;5.35;3.70;;;15.60;99.90;;;;;;4945961;28;38227;-75
2023/08/14 03:37:25;;;;;;;5.18;3.55;;;15.60;99.90;;;;;;4944523;28;37437;-75
2023/08/14 03:39:52;;;;;;;6.05;3.95;;;15.60;99.90;;;;;;4937188;28;37421;-76
2023/08/14 03:42:18;;;;;;;4.85;3.20;;;15.50;99.90;;;;;;4938349;28;36925;-75
2023/08/14 03:44:44;;;;;;;6.40;3.72;;;15.60;99.90;;;;;;4969531;28;37766;-76
2023/08/14 03:47:12;;;;;;;6.63;4.38;;;15.50;99.90;;;;;;4946637;28;38091;-76
2023/08/14 03:49:38;;;;;;;3.88;3.30;;;15.50;99.90;;;;;;4958634;28;39567;-76
2023/08/14 03:52:04;;;;;;;6.25;3.75;;;15.50;99.90;;;;;;4962178;28;38351;-76
2023/08/14 03:54:30;;;;;;;10.18;4.07;;;15.50;99.90;;;;;;4962753;28;39073;-76
2023/08/14 03:56:56;;;;;;;8.15;4.50;;;15.50;99.90;;;;;;4944328;28;38249;-76
2023/08/14 03:59:23;;;;;;;5.28;4.13;;;15.50;99.90;;;;;;4966507;28;39898;-76
2023/08/14 04:01:49;;;;;;;6.43;3.65;;;15.60;99.90;;;;;;4971416;28;38942;-76
2023/08/14 04:04:15;;;;;;;5.97;3.50;;;15.60;99.90;;;;;;4966215;28;38534;-75
2023/08/14 04:06:42;;;;;;;7.57;4.25;;;15.60;99.90;;;;;;4956034;28;35998;-76
2023/08/14 04:09:09;;;;;;;5.93;3.75;;;15.70;99.90;;;;;;4958662;28;37697;-76
2023/08/14 04:11:35;;;;;;;9.90;4.60;;;15.70;99.90;;;;;;4966341;28;38454;-76
2023/08/14 04:14:01;;;;;;;9.85;3.90;;;15.70;99.90;;;;;;4973131;28;38824;-76
2023/08/14 04:16:41;;;;;;;7.50;4.00;;;15.80;99.90;;;;;;4956748;28;37284;-76
2023/08/14 04:19:18;;;;;;;6.30;4.38;;;15.80;99.90;;;;;;4965738;28;38783;-76
2023/08/14 04:21:44;;;;;;;7.40;4.70;;;15.80;99.90;;;;;;4954718;28;38358;-76
2023/08/14 04:24:10;;;;;;;10.40;5.10;;;15.80;99.90;;;;;;4954759;28;38215;-75
2023/08/14 04:26:37;;;;;;;8.52;4.28;;;15.70;99.90;;;;;;4973668;28;38654;-76
2023/08/14 04:29:07;;;;;;;6.13;4.53;;;15.80;99.90;;;;;;4969912;28;39627;-76
2023/08/14 04:31:34;;;;;;;6.63;4.38;;;15.80;99.90;;;;;;4952403;28;37267;-75
2023/08/14 04:34:01;;;;;;;9.75;4.30;;;15.70;99.90;;;;;;4948202;28;37093;-76
2023/08/14 04:36:29;;;;;;;7.28;4.75;;;15.70;99.90;;;;;;4965036;28;48672;-75
2023/08/14 04:38:55;;;;;;;6.80;5.18;;;15.80;99.90;;;;;;4945581;28;38028;-75
2023/08/14 04:41:21;;;;;;;6.72;5.00;;;15.80;99.90;;;;;;4963142;28;38083;-76
2023/08/14 04:43:47;;;;;;;9.30;5.15;;;15.80;99.90;;;;;;4963842;28;38765;-76
2023/08/14 04:46:30;;;;;;;7.95;4.57;;;15.80;99.90;;;;;;4964663;28;37999;-75
2023/08/14 04:48:57;;;;;;;5.85;4.30;;;15.80;99.90;;;;;;4960800;28;39683;-75
2023/08/14 04:51:23;;;;;;;7.78;4.70;;;15.80;99.90;;;;;;4945749;28;37580;-75
2023/08/14 04:53:49;;;;;;;10.55;5.07;;;15.80;99.90;;;;;;4960438;28;36774;-76
2023/08/14 04:56:15;;;;;;;5.80;4.68;;;15.80;99.90;;;;;;4952071;28;36472;-75
2023/08/14 04:58:41;;;;;;;8.90;4.90;;;15.80;99.90;;;;;;4961126;28;38871;-76
2023/08/14 05:01:07;;;;;;;8.40;5.07;;;15.80;99.90;;;;;;4962448;28;38278;-75
2023/08/14 05:03:34;;;;;;;11.98;6.90;;;15.80;99.90;;;;;;4963204;28;37555;-75
2023/08/14 05:06:00;;;;;;;9.13;6.35;;;15.80;99.90;;;;;;4954814;28;35983;-76
2023/08/14 05:08:26;;;;;;;7.95;6.03;;;15.80;99.90;;;;;;4940945;28;40643;-76
2023/08/14 05:10:54;;;;;;;10.10;6.32;;;15.80;99.90;;;;;;4958439;28;38666;-75
2023/08/14 05:13:20;;;;;;;12.98;7.28;;;15.90;99.90;;;;;;4956437;28;37067;-76
2023/08/14 05:15:48;;;;;;;8.55;5.22;;;15.90;99.90;;;;;;4961485;28;34270;-75
2023/08/14 05:18:18;;;;;;;11.60;5.18;;;15.90;99.90;;;;;;4945698;28;38037;-75
2023/08/14 05:20:48;;;;;;;8.35;4.60;;;15.80;99.90;;;;;;4945164;28;38219;-75
2023/08/14 05:23:15;;;;;;;7.30;5.10;;;15.90;99.90;;;;;;4955964;28;37837;-75
2023/08/14 05:25:50;;;;;;;11.05;5.05;;;15.90;99.90;;;;;;4942736;28;36268;-75
2023/08/14 05:28:16;;;;;;;8.95;5.25;;;15.90;99.90;;;;;;4959838;28;38281;-75
2023/08/14 05:30:44;;;;;;;7.60;5.55;;;15.90;99.90;;;;;;4942414;28;36052;-74
2023/08/14 05:33:11;;;;;;;7.38;5.18;;;16.00;99.90;;;;;;4957088;28;39083;-75
2023/08/14 05:35:37;;;;;;;8.38;4.88;;;16.00;99.90;;;;;;4958363;28;37015;-75
2023/08/14 05:38:04;;;;;;;7.30;5.13;;;16.00;99.90;;;;;;4938221;28;37557;-75
2023/08/14 05:40:30;;;;;;;9.40;5.60;;;16.00;99.90;;;;;;4959643;28;36831;-75
2023/08/14 05:43:11;;;;;;;6.50;5.00;;;16.20;99.90;;;;;;4957826;28;38957;-76
2023/08/14 05:45:42;;;;;;;6.22;4.78;;;16.20;99.90;;;;;;4959798;28;48603;-75
2023/08/14 05:48:08;;;;;;;4.72;4.20;;;16.30;99.90;;;;;;4942753;28;37542;-76
2023/08/14 05:50:35;;;;;;;6.43;4.63;;;16.30;99.90;;;;;;4941080;28;38256;-76
2023/08/14 05:53:06;;;;;;;8.25;4.50;;;16.40;99.90;;;;;;4967807;28;38381;-76
2023/08/14 05:55:34;;;;;;;10.05;4.55;;;16.50;99.90;;;;;;4948194;28;47329;-76
2023/08/14 05:58:02;;;;;;;9.75;5.25;;;16.50;99.90;;;;;;4959375;28;37445;-76
2023/08/14 06:00:29;;;;;;;7.65;4.80;;;16.50;99.90;;;;;;4933297;28;49560;-76
2023/08/14 06:02:55;;;;;;;9.20;4.90;;;16.50;99.90;;;;;;4954714;28;38501;-76
2023/08/14 06:05:22;;;;;;;9.65;4.80;;;16.60;99.90;;;;;;4962103;28;37143;-76
2023/08/14 06:07:49;;;;;;;7.25;4.32;;;16.60;99.90;;;;;;4953964;28;39490;-77
2023/08/14 06:10:15;;;;;;;9.20;4.63;;;16.70;99.90;;;;;;4940033;28;37342;-77
2023/08/14 06:12:44;;;;;;;5.78;4.25;;;16.70;99.90;;;;;;4943731;28;36776;-76
2023/08/14 06:15:11;;;;;;;7.82;4.47;;;16.70;99.90;;;;;;4946489;28;37296;-76
2023/08/14 06:17:39;;;;;;;9.73;4.40;;;16.80;99.90;;;;;;4962518;28;38858;-77
2023/08/14 06:20:06;;;;;;;6.07;3.97;;;16.90;99.90;;;;;;4962191;28;37241;-77
2023/08/14 06:22:32;;;;;;;7.80;3.83;;;17.00;99.90;;;;;;4963895;28;48429;-76
2023/08/14 06:24:58;;;;;;;6.65;4.00;;;17.10;99.90;;;;;;4963799;28;36826;-76
2023/08/14 06:27:24;;;;;;;5.07;3.10;;;17.10;99.90;;;;;;4953556;28;38998;-77
2023/08/14 06:29:50;;;;;;;6.82;3.70;;;17.10;99.90;;;;;;4947681;28;37553;-76
2023/08/14 06:32:16;;;;;;;5.40;3.38;;;17.20;99.90;;;;;;4951754;28;37055;-77
2023/08/14 06:34:42;;;;;;;6.30;3.20;;;17.20;99.90;;;;;;4962417;28;37891;-76
2023/08/14 06:37:09;;;;;;;6.00;3.25;;;17.30;99.90;;;;;;4941786;28;37669;-76
2023/08/14 06:39:35;;;;;;;6.00;3.00;;;17.30;99.90;;;;;;4956023;28;37801;-77
2023/08/14 06:42:01;;;;;;;6.57;3.33;;;17.40;99.90;;;;;;4962364;28;39539;-76
2023/08/14 06:44:27;;;;;;;4.10;3.30;;;17.40;99.90;;;;;;4944769;28;47123;-77
2023/08/14 06:46:53;;;;;;;5.57;3.42;;;17.40;99.90;;;;;;4959508;28;38019;-76
2023/08/14 06:49:19;;;;;;;6.93;3.15;;;17.60;99.90;;;;;;4958929;28;38201;-76
2023/08/14 06:51:45;;;;;;;4.70;2.65;;;17.70;99.90;;;;;;4968570;28;38464;-76
2023/08/14 06:54:12;;;;;;;5.80;3.20;;;17.90;99.90;;;;;;4974416;28;35981;-77
2023/08/14 06:56:38;;;;;;;6.07;2.63;;;18.20;99.90;;;;;;4945211;28;39082;-77
2023/08/14 06:59:04;;;;;;;6.60;2.50;;;18.30;99.90;;;;;;4957714;28;38521;-76
2023/08/14 07:01:30;;;;;;;6.88;2.60;;;18.40;99.90;;;;;;4940329;28;39717;-76
2023/08/14 07:03:58;;;;;;;9.52;2.65;;;18.60;99.90;;;;;;4950362;28;36380;-77
2023/08/14 07:06:24;;;;;;;4.65;1.95;;;18.50;99.90;;;;;;4966857;28;38300;-76
2023/08/14 07:08:50;;;;;;;3.63;1.85;;;18.50;99.90;;;;;;4949979;28;37105;-76
2023/08/14 07:11:16;;;;;;;4.85;1.80;;;18.50;99.90;;;;;;4973137;28;37413;-76
2023/08/14 07:13:43;;;;;;;7.65;2.00;;;18.50;99.90;;;;;;4952909;28;36276;-76
2023/08/14 07:16:09;;;;;;;4.22;1.63;;;18.50;99.90;;;;;;4968483;28;37939;-76
2023/08/14 07:18:35;;;;;;;3.50;1.55;;;18.50;99.90;;;;;;4957521;28;37476;-76
2023/08/14 07:21:04;;;;;;;4.35;1.42;;;18.60;99.90;;;;;;4988534;28;36375;-77
2023/08/14 07:23:31;;;;;;;4.07;1.42;;;18.70;99.90;;;;;;4956115;28;36659;-76
2023/08/14 07:26:03;;;;;;;4.57;1.30;;;18.80;99.90;;;;;;4959726;28;38522;-77
2023/08/14 07:28:30;;;;;;;6.00;1.50;;;19.10;99.90;;;;;;4964079;28;48085;-76
2023/08/14 07:30:57;;;;;;;2.35;1.30;;;19.50;99.90;;;;;;4953365;28;36631;-76
2023/08/14 07:33:23;;;;;;;7.03;1.35;;;19.80;99.90;;;;;;4950703;28;36394;-77
2023/08/14 07:35:49;;;;;;;3.75;1.55;;;20.20;99.90;;;;;;4967485;28;38266;-77
2023/08/14 07:38:15;;;;;;;3.60;1.48;;;20.40;99.90;;;;;;4945033;28;38622;-76
2023/08/14 07:40:42;;;;;;;5.93;1.52;;;20.60;99.90;;;;;;4955961;28;36879;-76
2023/08/14 07:43:08;;;;;;;4.75;1.30;;;20.80;99.90;;;;;;4964966;28;37192;-76
2023/08/14 07:45:35;;;;;;;2.45;0.82;;;20.70;99.90;;;;;;4962643;28;39938;-76
2023/08/14 07:48:01;;;;;;;3.45;1.30;;;20.80;99.90;;;;;;4950315;28;37904;-77
2023/08/14 07:50:27;;;;;;;3.08;1.35;;;21.10;99.90;;;;;;4961533;28;39010;-74
2023/08/14 07:52:54;;;;;;;3.15;1.25;;;21.40;99.90;;;;;;4940326;28;35976;-76
2023/08/14 07:55:20;;;;;;;2.80;1.20;;;21.70;99.90;;;;;;4943240;28;37630;-76
2023/08/14 07:57:46;;;;;;;5.47;1.77;;;22.00;99.90;;;;;;4963927;28;38691;-75
2023/08/14 08:00:16;;;;;;;3.53;2.30;;;22.10;99.90;;;;;;4959635;28;38157;-76
2023/08/14 08:02:42;;;;;;;5.28;2.00;;;22.20;99.90;;;;;;4950935;28;36302;-76
2023/08/14 08:05:09;;;;;;;4.95;1.63;;;22.20;99.60;;;;;;4955265;28;39022;-77
2023/08/14 08:07:36;;;;;;;3.85;2.10;;;22.30;99.90;;;;;;4942242;28;20469;-75
2023/08/14 08:10:02;;;;;;;6.10;2.28;;;22.50;99.90;;;;;;4952071;28;37968;-74
2023/08/14 08:12:29;;;;;;;2.50;1.30;;;22.60;96.40;;;;;;4964226;28;37601;-75
2023/08/14 08:14:55;;;;;;;3.33;1.63;;;22.60;88.30;;;;;;4956394;28;36815;-75
2023/08/14 08:17:21;;;;;;;2.88;1.40;;;22.70;98.00;;;;;;4948738;28;37151;-75
2023/08/14 08:19:47;;;;;;;4.55;1.70;;;22.80;94.50;;;;;;4946066;28;38924;-75
2023/08/14 08:22:13;;;;;;;5.93;1.20;;;22.80;93.90;;;;;;4966828;28;37817;-75
2023/08/14 08:24:40;;;;;;;2.75;1.40;;;23.00;91.00;;;;;;4965532;28;38685;-75
2023/08/14 08:27:06;;;;;;;2.47;1.08;;;23.10;81.30;;;;;;4968518;28;39111;-75
2023/08/14 08:29:32;;;;;;;2.03;1.10;;;23.10;64.60;;;;;;4967226;28;37576;-74
2023/08/14 08:31:58;;;;;;;4.53;1.50;;;22.80;63.50;;;;;;4967600;28;37104;-75
2023/08/14 08:34:24;;;;;;;4.22;1.30;;;23.00;55.80;;;;;;4945561;28;38170;-75
2023/08/14 08:36:50;;;;;;;2.63;1.50;;;22.80;69.50;;;;;;4949463;28;37461;-75
2023/08/14 08:39:16;;;;;;;4.97;1.33;;;23.00;70.70;;;;;;4957245;28;38320;-75
2023/08/14 08:41:46;;;;;;;5.20;1.27;;;23.20;59.60;;;;;;4937301;28;36775;-75
2023/08/14 08:44:20;;;;;;;3.45;1.48;;;23.30;78.20;;;;;;4972766;28;38714;-75
2023/08/14 08:46:57;;;;;;;4.10;1.35;;;23.40;63.00;;;;;;4956002;28;37102;-75
2023/08/14 08:49:27;;;;;;;6.40;2.72;;;23.60;52.80;;;;;;4966508;28;38385;-75
2023/08/14 08:51:54;;;;;;;5.47;2.30;;;23.40;58.60;;;;;;4965966;28;36596;-75
2023/08/14 08:54:21;;;;;;;4.72;2.00;;;23.20;64.50;;;;;;4972607;28;38668;-76
2023/08/14 08:56:48;;;;;;;5.50;2.08;;;23.20;66.40;;;;;;4962570;28;38970;-75
2023/08/14 08:59:15;;;;;;;5.95;2.15;;;23.30;82.70;;;;;;4943338;28;37744;-75
2023/08/14 09:01:42;;;;;;;3.90;1.85;;;23.60;71.70;;;;;;4963292;28;36530;-75
2023/08/14 09:04:08;;;;;;;7.97;2.33;;;23.70;77.80;;;;;;4947529;28;39635;-75
2023/08/14 09:06:34;;;;;;;6.13;2.00;;;23.30;66.80;;;;;;4959810;28;37653;-75
2023/08/14 09:09:01;;;;;;;7.47;2.28;;;23.40;90.50;;;;;;4951675;28;38633;-74
2023/08/14 09:11:29;;;;;;;8.98;2.85;;;23.50;71.50;;;;;;4961225;28;49177;-78
2023/08/14 09:13:55;;;;;;;6.03;2.15;;;23.50;70.70;;;;;;4938508;28;39283;-75
2023/08/14 09:16:23;;;;;;;6.28;2.30;;;23.80;73.00;;;;;;4963019;28;39562;-78
2023/08/14 09:18:49;;;;;;;7.00;1.92;;;23.80;82.80;;;;;;4945694;28;36268;-80
2023/08/14 09:21:18;;;;;;;5.57;2.17;;;24.10;61.80;;;;;;4995517;28;38609;-78
2023/08/14 09:23:47;;;;;;;4.78;2.20;;;24.00;71.10;;;;;;4962783;28;37566;-77
2023/08/14 09:26:13;;;;;;;8.35;2.63;;;24.00;67.80;;;;;;4953397;28;38423;-75
2023/08/14 09:28:39;;;;;;;6.07;2.15;;;24.10;65.30;;;;;;4943737;28;40313;-75
2023/08/14 09:31:10;;;;;;;4.35;1.75;;;24.10;58.00;;;;;;4955791;28;39239;-74
2023/08/14 09:33:37;;;;;;;6.07;2.25;;;24.30;59.20;;;;;;4948989;28;39242;-76
2023/08/14 09:36:03;;;;;;;5.18;2.30;;;24.40;58.30;;;;;;4946688;28;38344;-75
2023/08/14 09:38:31;;;;;;;5.45;2.08;;;24.40;61.30;;;;;;4939250;28;36820;-74
2023/08/14 09:41:01;;;;;;;7.55;2.50;;;24.40;53.10;;;;;;4938253;28;37799;-75
2023/08/14 09:43:32;;;;;;;7.57;2.25;;;24.30;42.00;;;;;;4931096;28;46951;-74
2023/08/14 09:46:01;;;;;;;7.57;2.47;;;24.50;72.80;;;;;;4937712;28;38075;-74
2023/08/14 09:48:41;;;;;;;6.95;1.55;;;24.70;19.10;;;;;;4961012;28;39182;-74
2023/08/14 09:51:15;;;;;;;7.15;1.45;;;24.50;21.50;;;;;;4942051;28;37516;-74
2023/08/14 09:53:52;;;;;;;5.80;1.50;;;24.70;16.50;;;;;;4964495;28;39267;-75
2023/08/14 09:56:19;;;;;;;5.68;1.17;;;24.90;10.40;;;;;;4956991;28;38364;-74
2023/08/14 09:58:50;;;;;;;11.10;2.30;;;25.10;27.80;;;;;;4944773;28;37028;-75
2023/08/14 10:01:18;;;;;;;4.38;1.10;;;25.10;5.30;;;;;;4944957;28;36384;-75
2023/08/14 10:03:46;;;;;;;8.05;1.50;;;25.10;1.00;;;;;;4948145;28;37640;-74
2023/08/14 10:06:13;;;;;;;5.47;1.27;;;25.20;26.00;;;;;;4955506;28;38113;-75
2023/08/14 10:08:44;;;;;;;7.65;1.73;;;25.30;1.00;;;;;;4966940;28;37783;-75
2023/08/14 10:11:13;;;;;;;5.57;1.65;;;25.20;1.00;;;;;;4946191;28;38272;-74
2023/08/14 10:13:46;;;;;;;3.67;1.27;;;24.90;1.00;;;;;;4948011;28;41642;-75
2023/08/14 10:16:23;;;;;;;6.30;1.42;;;24.90;3.00;;;;;;4941107;28;37439;-74
2023/08/14 10:18:53;;;;;;;5.22;1.50;;;25.20;1.00;;;;;;4947604;28;36732;-74
2023/08/14 10:21:20;;;;;;;5.15;1.40;;;25.10;1.90;;;;;;4952996;28;37218;-74
2023/08/14 10:23:48;;;;;;;4.57;1.38;;;25.00;1.00;;;;;;4959779;28;38560;-74
2023/08/14 10:26:15;;;;;;;4.95;1.23;;;25.00;1.00;;;;;;4952201;28;37106;-75
2023/08/14 10:28:43;;;;;;;6.22;1.77;;;24.90;1.00;;;;;;4958339;28;38297;-74
2023/08/14 10:31:10;;;;;;;5.03;1.42;;;24.90;1.00;;;;;;4964725;28;37862;-74
2023/08/14 10:33:38;;;;;;;4.18;1.48;;;24.90;1.00;;;;;;4964324;28;42883;-74
2023/08/14 10:36:04;;;;;;;5.13;1.55;;;25.30;27.10;;;;;;4967184;28;37560;-75
2023/08/14 10:38:46;;;;;;;4.15;1.90;;;25.50;1.50;;;;;;4941682;28;37107;-76
2023/08/14 10:41:14;;;;;;;;;;;25.50;1.00;;;;;;4963741;28;37144;-78
2023/08/14 10:43:40;;;;;;;5.50;1.70;;;25.50;1.00;;;;;;4960063;28;37655;-77
2023/08/14 10:46:11;;;;;;;6.13;1.95;;;25.40;1.00;;;;;;4952083;28;37447;-76
2023/08/14 10:48:38;;;;;;;4.00;1.30;;;25.40;1.00;;;;;;4944187;28;38270;-77
2023/08/14 10:51:08;;;;;;;3.03;1.40;;;25.50;1.00;;;;;;4942583;28;35929;-77
2023/08/14 10:53:35;;;;;;;4.88;1.50;;;25.70;1.00;;;;;;4943170;28;38911;-77
2023/08/14 10:56:03;;;;;;;4.50;1.50;;;25.90;1.00;;;;;;4931865;28;37291;-76
2023/08/14 10:58:32;;;;;;;5.50;1.58;;;25.70;1.00;;;;;;4953534;28;38244;-78
2023/08/14 11:01:00;;;;;;;4.82;1.60;;;25.40;1.00;;;;;;4960459;28;37316;-77
2023/08/14 11:03:27;;;;;;;4.82;1.58;;;25.50;1.00;;;;;;4969748;28;37801;-80
2023/08/14 11:05:55;;;;;;;5.40;1.70;;;25.90;1.00;;;;;;4959290;28;37841;-80
2023/08/14 11:08:30;;;;;;;6.07;1.48;;;25.80;1.00;;;;;;4977969;28;36781;-79
2023/08/14 11:10:57;;;;;;;3.50;1.35;;;25.50;1.00;;;;;;4951094;28;38356;-77
2023/08/14 11:13:26;;;;;;;4.68;1.42;;;25.40;1.00;;;;;;4942864;28;42131;-78
2023/08/14 11:15:52;;;;;;;5.88;1.60;;;25.60;22.30;;;;;;4958996;28;37682;-78
2023/08/14 11:18:19;;;;;;;4.50;1.77;;;25.60;1.00;;;;;;4941830;28;38077;-77
2023/08/14 11:20:45;;;;;;;6.72;1.85;;;25.60;1.00;;;;;;4947242;28;35668;-76
2023/08/14 11:23:11;;;;;;;4.50;1.77;;;25.60;1.00;;;;;;4936239;28;37924;-76
2023/08/14 11:25:38;;;;;;;5.25;1.80;;;25.80;16.20;;;;;;4949581;28;37297;-77
2023/08/14 11:28:04;;;;;;;5.82;1.80;;;26.10;1.00;;;;;;4947834;28;37820;-76
2023/08/14 11:30:33;;;;;;;5.72;1.80;;;26.30;1.00;;;;;;4954299;28;37009;-77
2023/08/14 11:33:01;;;;;;;6.07;2.03;;;25.90;1.00;;;;;;4931779;28;38930;-78
2023/08/14 11:35:30;;;;;;;7.15;1.98;;;25.80;1.00;;;;;;4951169;28;46486;-78
2023/08/14 11:37:57;;;;;;;5.78;2.03;;;25.80;1.00;;;;;;4966462;28;37471;-77
2023/08/14 11:40:24;;;;;;;9.43;2.60;;;25.80;1.00;;;;;;4966805;28;37547;-76
2023/08/14 11:42:50;;;;;;;5.38;2.05;;;25.40;1.00;;;;;;4969767;28;38871;-77
2023/08/14 11:45:17;;;;;;;6.30;1.80;;;25.60;1.00;;;;;;4966473;28;38649;-77
2023/08/14 11:47:47;;;;;;;7.60;2.03;;;26.10;1.00;;;;;;4973913;28;37010;-77
2023/08/14 11:50:14;;;;;;;9.43;2.58;;;26.20;1.00;;;;;;4950209;28;36940;-79
2023/08/14 11:52:42;;;;;;;6.22;2.05;;;25.90;1.00;;;;;;4953454;28;39841;-75
2023/08/14 11:55:09;;;;;;;8.30;2.30;;;25.90;1.00;;;;;;4953306;28;37557;-76
2023/08/14 11:57:36;;;;;;;7.90;2.25;;;26.10;1.00;;;;;;4956635;28;38750;-76
2023/08/14 12:00:10;;;;;;;8.90;2.30;;;25.90;1.00;;;;;;4952019;28;36076;-76
2023/08/14 12:02:40;;;;;;;7.40;2.72;;;25.90;1.00;;;;;;4947156;28;37994;-76
2023/08/14 12:05:07;;;;;;;6.70;2.20;;;26.10;1.00;;;;;;4941074;28;37453;-76
2023/08/14 12:07:34;;;;;;;7.15;1.98;;;26.20;1.00;;;;;;4924997;28;36807;-75
2023/08/14 12:10:05;;;;;;;8.32;2.38;;;26.00;1.00;;;;;;4949421;28;36864;-76
2023/08/14 12:12:31;;;;;;;7.65;2.53;;;26.00;1.00;;;;;;4961632;28;47948;-77
2023/08/14 12:14:59;;;;;;;5.65;1.90;;;26.40;1.00;;;;;;4965802;28;35509;-76
2023/08/14 12:17:25;;;;;;;6.47;2.05;;;26.60;1.00;;;;;;4943721;28;37603;-75
2023/08/14 12:19:59;;;;;;;10.20;2.20;;;26.60;1.00;;;;;;4943674;28;37835;-76
2023/08/14 12:22:27;;;;;;;7.28;2.08;;;26.60;1.00;;;;;;4941740;28;38774;-75
2023/08/14 12:24:54;;;;;;;6.88;2.42;;;26.50;1.00;;;;;;4947342;28;38323;-78
2023/08/14 12:27:23;;;;;;;4.43;1.63;;;26.50;1.00;;;;;;4937401;28;37223;-78
2023/08/14 12:29:50;;;;;;;5.65;1.83;;;26.50;1.00;;;;;;4951631;28;36312;-77
2023/08/14 12:32:17;;;;;;;6.95;1.90;;;26.50;1.00;;;;;;4954844;28;37796;-78
2023/08/14 12:34:43;;;;;;;4.88;1.65;;;26.40;1.00;;;;;;4961406;28;37760;-80
2023/08/14 12:37:14;;;;;;;6.13;2.20;;;26.40;1.00;;;;;;4937350;28;37025;-80
2023/08/14 12:39:42;;;;;;;7.33;1.90;;;26.70;1.00;;;;;;4941769;28;36145;-79
2023/08/14 12:42:08;;;;;;;6.32;2.22;;;26.70;1.00;;;;;;4957407;28;40233;-78
2023/08/14 12:44:34;;;;;;;7.75;2.17;;;26.70;1.00;;;;;;4946132;28;38835;-78
2023/08/14 12:47:01;;;;;;;3.75;1.27;;;26.60;1.00;;;;;;4956997;28;37811;-78
2023/08/14 12:49:27;;;;;;;6.72;1.70;;;26.70;1.00;;;;;;4959344;28;35318;-79
2023/08/14 12:51:53;;;;;;;3.83;1.50;;;27.00;1.00;;;;;;4964840;28;38229;-78